• Join FlightAware (Why Join?)
  • Login
  • US Flag 
Rudolph Flight #1: Arrived! 
01:32AM EST


 

Airport Tracker/Info


-or-


 

Live Flight TrackerFlight Track Log ✈ ASQ6124 ✈ 17-May-2013 ✈ KIAD - KCLT

Flight Track Log - Related Links

Times and Time Zones

All times are in EDT time to prevent confusion due to time zone crossing. See the ASQ6124 flight status page for this flight to view local times or setup timezone preferences in your user account.

Time Position Orientation Groundspeed Altitude Reporting Facility
EDT Latitude Longitude Course Direction KTS MPH feet Rate Location/Type
05:38PM 38.8833 -77.4333 185° South 180 207 2,300  Level Potomac TRACON
05:39PM 38.7989 -77.4561 192° South 241 277 4,700 1,740 Climbing Washington Center
05:40PM 38.6711 -77.5000 180° South  Level FlightAware Approximate
05:40PM 38.7278 -77.4758 192° South 248 285 6,900  Level Washington Center
05:41PM 38.5821 -77.5211 191° South  Level FlightAware Approximate
05:41PM 38.6522 -77.4978 193° South 266 306 8,900  Level Washington Center
05:42PM 38.4927 -77.5379 185° South  Level FlightAware Approximate
05:42PM 38.5908 -77.5597 218° Southwest 271 312 10,700  Level Washington Center
05:43PM 38.4025 -77.5479 185° South  Level FlightAware Approximate
05:43PM 38.5231 -77.6297 219° Southwest 299 344 11,300  Level Washington Center
05:44PM 38.4486 -77.7072 219° Southwest 318 366 12,700 1,380 Climbing Washington Center
05:45PM 38.3742 -77.7872 220° Southwest 342 394 14,100 1,260 Climbing Washington Center
05:46PM 38.2956 -77.8669 219° Southwest 354 407 15,200 960 Climbing Washington Center
05:47PM 38.2169 -77.9492 219° Southwest 364 419 16,100 900 Climbing Washington Center
05:48PM 38.1358 -78.0336 219° Southwest 369 425 17,100 1,020 Climbing Washington Center
05:49PM 38.0550 -78.1181 219° Southwest 374 430 18,200 1,140 Climbing Washington Center
05:50PM 37.9800 -78.2078 223° Southwest 374 430 19,400 1,140 Climbing Washington Center
05:51PM 37.9131 -78.3081 230° Southwest 374 430 20,500 960 Climbing Washington Center
05:52PM 37.8419 -78.4081 228° Southwest 384 442 21,400 660 Climbing Washington Center
05:53PM 37.7708 -78.5106 229° Southwest 389 448 21,900 240 Climbing Washington Center
05:54PM 37.6864 -78.6306 228° Southwest 409 471 22,000  Climbing Washington Center
05:55PM 37.6064 -78.7428 228° Southwest 425 489 22,000  Level Washington Center
05:56PM 37.5222 -78.8492 225° Southwest 431 496 22,000  Level Washington Center
05:57PM 37.4400 -78.9478 224° Southwest 431 496 22,000  Level Washington Center
05:58PM 37.3544 -79.0275 217° Southwest 419 482 22,000  Level Washington Center
05:59PM 37.2600 -79.1172 217° Southwest 424 488 22,000  Level Washington Center
06:00PM 37.1656 -79.2069 217° Southwest 429 494 22,000  Level Washington Center
06:01PM 37.0839 -79.2864 218° Southwest 411 473 22,000  Level Washington Center
06:02PM 37.0064 -79.3581 216° Southwest 372 428 22,000  Level Washington Center
06:03PM 36.9225 -79.4397 218° Southwest 356 410 22,000  Level Washington Center
06:04PM 36.8450 -79.5111 216° Southwest 356 410 22,000  Level Washington Center
06:05PM 36.7656 -79.5847 217° Southwest 356 410 22,000  Level Washington Center
06:08PM 36.5619 -79.7742 217° Southwest 367 422 22,000  Level Atlanta Center
06:09PM 36.4750 -79.8536 216° Southwest 388 447 22,000  Level Atlanta Center
06:10PM 36.3922 -79.9328 218° Southwest 388 447 22,000  Level Atlanta Center
06:11PM 36.3050 -80.0119 216° Southwest 388 447 22,000  Level Atlanta Center
06:12PM 36.2186 -80.0472 198° South 383 441 22,000 -180 Level Atlanta Center
06:13PM 36.1258 -80.0825 197° South 370 426 21,700 -900 Descending Atlanta Center
06:14PM 36.0353 -80.1178 197° South 356 410 20,300 -1,800 Descending Atlanta Center
06:15PM 35.9383 -80.1533 197° South 345 397 18,200 -1,680 Descending Atlanta Center
06:16PM 35.8539 -80.1856 197° South 334 384 17,000 -1,080 Descending Atlanta Center
06:16PM 35.8106 -80.2056 201° Southwest 321 369 16,600 -1,200 Descending Atlanta Center
06:17PM 35.7694 -80.2200 196° South 322 371 15,800 -1,980 Descending Atlanta Center
06:17PM 35.7242 -80.2428 202° Southwest 312 359 14,600 -2,040 Descending Atlanta Center
06:18PM 35.6869 -80.2497 189° South 316 364 13,800 -1,560 Descending Atlanta Center
06:18PM 35.6481 -80.2719 205° Southwest 309 356 13,200 -840 Descending Atlanta Center
06:19PM 35.6169 -80.2808 193° South 316 364 13,000 -180 Descending Atlanta Center
06:19PM 35.5806 -80.3158 218° Southwest 242 278 13,000  Level Atlanta Center
06:20PM 35.5664 -80.3369 230° Southwest 274 315 13,000 -120 Level Atlanta Center
06:20PM 35.5469 -80.3861 244° Southwest 239 275 12,900 -540 Descending Atlanta Center
06:21PM 35.5375 -80.4147 248° West 246 283 12,500 -1,740 Descending Atlanta Center
06:22PM 35.5144 -80.4794 246° West 253 291 11,000 -1,800 Descending Atlanta Center
06:22PM 35.5064 -80.4900 227° Southwest 252 290 10,700 -1,680 Descending Atlanta Center
06:22PM 35.4847 -80.5419 243° Southwest 246 283 9,500 -1,620 Descending Atlanta Center
06:23PM 35.4772 -80.5703 252° West 252 290 9,100 -1,440 Descending Atlanta Center
06:24PM 35.5081 -80.6253 305° West 245 282 7,900 -1,500 Descending Atlanta Center
06:24PM 35.5147 -80.6428 295° West 218 251 7,600 -1,020 Descending Atlanta Center
06:25PM 35.5531 -80.6719 328° Northwest 240 276 7,000 -600 Descending Atlanta Center
06:25PM 35.5719 -80.6761 350° North 225 259 7,000 -240 Level Atlanta Center
06:26PM 35.6203 -80.6869 350° North 237 273 6,800 -540 Descending Atlanta Center
06:26PM 35.6314 -80.7069 304° West 220 253 6,500 -780 Descending Atlanta Center
06:27PM 35.6267 -80.7683 265° West 236 272 6,000 -300 Descending Atlanta Center
06:28PM 35.6228 -80.8581 267° West 227 261 6,000 -420 Level Atlanta Center
06:29PM 35.6200 -80.9169 267° West 172 198 5,200 -960 Descending Atlanta Center
06:30PM 35.5983 -80.9636 240° Southwest 170 196 4,100 -660 Descending Atlanta Center
06:31PM 35.5592 -80.9856 205° Southwest 164 189 4,000 -60 Descending Atlanta Center
06:32PM 35.5111 -80.9797 174° South 180 207 4,000  Level Atlanta Center
06:33PM 35.4631 -80.9764 177° South 171 197 4,000  Level Atlanta Center
06:34PM 35.4169 -80.9706 174° South 173 199 4,000 -360 Level Atlanta Center
06:35PM 35.3628 -80.9700 180° South 175 201 3,300 -660 Descending Atlanta Center